Airfield :
LOGIN :

Register | Disclaimer

   EN    FR    IT 

 










Legend :    VFR   Marginal VFR   IFR   Intensive IFR   Very Intensive IFR
Visi :
Ceiling :
>= 8 km
>= 3000ft
5 to 8 km
1000 to 3000 ft
1500m to 5 km
500 to 1000 ft
800 to 1500m
200 to 500 ft
< 800m
< 200 ft
Symbols :   Thunderstorms  Fog  Heavy snow  Heavy precipitations  Wind > 20 kt
SIGMETs :     Misc.  Thunderstorms  Icing  Turbulence  Mountain Waves  Volcanic Ashes







- Airport Elevation : 63 ft
- IATA code : BZM


EHWO - Woensdrecht Airbase

CURRENT METAR :
  • 290505Z AUTO 03002KT 9999 NCD M01/M01 Q1018 BLU

EXPIRED METARs :
  • 290455Z AUTO 29001KT 9000 BR NCD M01/M01 Q1018 BLU
  • 290447Z AUTO 08001KT 6000 BR NCD M00/M01 Q1018 WHT
  • 290425Z AUTO 08001KT 9999 NCD M01/M01 Q1018 BLU
  • 290412Z AUTO 11001KT 6000 BR BKN024 M01/M02 Q1018 WHT
  • 290356Z AUTO 00000KT 9999 BKN024 M01/M01 Q1018 WHT
  • 290355Z AUTO 00000KT 5000 BR FEW025 M01/M01 Q1018 WHT
  • 290338Z AUTO 08001KT 9999 FEW046 M01/M01 Q1018 BLU
  • 290325Z AUTO 00000KT 9999 NCD M01/M01 Q1018 BLU
  • 290312Z AUTO 00000KT 6000 BR NCD M01/M01 Q1018 WHT
  • 290255Z AUTO 08002KT 9000 BR NCD M01/M01 Q1017 BLU
  • 290225Z AUTO 06001KT 9999 NCD M00/M01 Q1017 BLU

Expired Forecast.
No reported NOTAMs for that airfield.



MET'MAP, your aeronautical weather chart ! - Copyright ORBIFLY December 2007 - Disclaimer

ORBIFLY MET'MAP TEAM :

Programming & Development : Alexandra Zaïnal
Concept & Development : Baudouin d'Aumeries
Co-Development & Prog : Marc-Olivier Méhu
Technical & hardware support : Manuel Goepfert

Contact : metmap@orbifly.com




SOURCES & CREDITS :

   NOAA